West Tisbury, MA

7:08 PM EDT on August 04, 2015 (GMT -0400)
Martha's Vineyard | | Change Station
CLOSE
Current Station
Airport
Location: Martha's Vineyard,
Elevation: 69 ft
Nearby Weather Stations

Elev 69 ft 41.39 °N, 70.61 °W | Updated 15 minutes ago

Fog
Fog
77 °F
Feels Like 77 °F
N
14
Wind Variable Wind from SW
Gusts 20 mph

Today
High -- | Low -- °F
--% Chance of Precip.
Yesterday
High -- | Low -- °F
Precip. -- in
5:40 AM 7:56 PM
Waning Gibbous, 73% visible
Pressure 29.86 in
Visibility 6.0 miles
Clouds Mostly Cloudy 600 ft
Dew Point 73 °F
Humidity 88%
Rainfall 0.14 in
Snow Depth Not available.
UV 0 out of 12
Pollen 7.30 out of 12
Air Quality Not available.
Flu Activity Not available.
METAR KMVY 042253Z 22012G17KT 6SM BR BKN006 25/23 A2986 RMK AO2 SLP109 T02500228

More Conditions Fewer Conditions

Pressure 29.86 in
Visibility 6.0 miles
Clouds Mostly Cloudy 600 ft
Dew Point 73 °F
Humidity 88%
Rainfall 0.14 in
Snow Depth Not available.
UV 0 out of 12
Pollen 7.30 out of 12
Air Quality Not available.
Flu Activity Not available.
METAR KMVY 042253Z 22012G17KT 6SM BR BKN006 25/23 A2986 RMK AO2 SLP109 T02500228

More Conditions Fewer Conditions

10-Day Weather Forecast

×

Almanac

Astronomy

Aug. 04, 2015 Rise Set
Actual Time
Civil Twilight
Nautical Twilight
Astronomical Twilight
Moon
Length of Visible Light
Length of Day
Tomorrow will be .
, % of the Moon is Illuminated

Today's Extremes

State Highs State Lows

Community

WunderPhotos

Upload Photos

1,844,017 photos uploaded!

WunderBlogs® & News

Nearby

Air Quality

  Air Quality AQ Index Pollutant
Not available.

Snow Depth

Station Depth Elevation

Earthquake Activity

City Distance Mag. Time & Date
Minimum magnitude displayed is 2.5.

Coastal Water Temperatures

Place Temperature

Stations

Nearby Weather Stations

Station Location Temp. Windchill Dew Point Humidity Wind Precip. Elev Updated Type